createdAt,value
2019-01-19T00:01:54.607Z,3.30
2019-01-19T00:05:15.061Z,3.30
2019-01-19T00:08:12.763Z,3.28
2019-01-19T00:11:49.246Z,3.24
2019-01-19T00:15:00.042Z,3.19
2019-01-19T00:18:27.433Z,3.19
2019-01-19T00:21:30.063Z,3.19
2019-01-19T00:25:00.639Z,3.19
2019-01-19T00:28:06.124Z,3.19
2019-01-19T00:30:52.099Z,3.17
2019-01-19T00:34:10.233Z,3.15
2019-01-19T00:36:50.373Z,3.15
2019-01-19T00:39:59.122Z,3.13
2019-01-19T00:42:51.649Z,3.12
2019-01-19T00:45:45.574Z,3.12
2019-01-19T00:48:27.420Z,3.13
2019-01-19T00:51:39.571Z,3.10
2019-01-19T00:54:35.086Z,3.04
2019-01-19T00:57:22.312Z,2.96
2019-01-19T01:00:00.571Z,2.92
2019-01-19T01:03:24.396Z,2.85
2019-01-19T01:06:32.448Z,2.83
2019-01-19T01:09:54.029Z,2.80
2019-01-19T01:12:57.922Z,2.76
2019-01-19T01:15:55.807Z,2.72
2019-01-19T01:18:51.228Z,2.71
2019-01-19T01:22:17.305Z,2.73
2019-01-19T01:25:37.552Z,2.76
2019-01-19T01:29:01.751Z,2.76
2019-01-19T01:31:58.042Z,2.77
2019-01-19T01:34:45.364Z,2.81
2019-01-19T01:37:43.559Z,2.86
2019-01-19T01:41:16.984Z,2.88
2019-01-19T01:44:05.508Z,2.91
2019-01-19T01:47:39.152Z,2.93
2019-01-19T01:50:18.721Z,2.94
2019-01-19T01:53:13.056Z,2.95
2019-01-19T01:55:47.577Z,2.95
2019-01-19T01:58:43.698Z,2.96
2019-01-19T02:01:46.794Z,2.98
2019-01-19T02:04:54.150Z,3.00
2019-01-19T02:08:17.302Z,3.02
2019-01-19T02:11:29.580Z,3.02
2019-01-19T02:14:51.000Z,3.03
2019-01-19T02:17:51.954Z,3.00
2019-01-19T02:21:00.107Z,3.00
2019-01-19T02:24:08.270Z,3.02
2019-01-19T02:27:09.769Z,3.02
2019-01-19T02:30:09.031Z,3.02
2019-01-19T02:33:17.808Z,3.02
2019-01-19T02:36:16.749Z,3.01
2019-01-19T02:39:29.352Z,3.02
2019-01-19T02:42:36.599Z,3.01
2019-01-19T02:45:48.990Z,2.96
2019-01-19T02:48:56.140Z,2.96
2019-01-19T02:52:10.100Z,3.01
2019-01-19T02:55:25.305Z,3.00
2019-01-19T02:58:36.063Z,2.98
2019-01-19T03:01:44.309Z,2.99
2019-01-19T03:04:51.646Z,2.99
2019-01-19T03:08:16.263Z,2.98
2019-01-19T03:11:09.795Z,2.93
2019-01-19T03:14:23.092Z,2.93
2019-01-19T03:17:44.339Z,2.92
2019-01-19T03:20:36.727Z,2.90
2019-01-19T03:23:29.375Z,2.88
2019-01-19T03:26:46.247Z,2.86
2019-01-19T03:29:54.319Z,2.83
2019-01-19T03:33:12.597Z,2.79
2019-01-19T03:36:07.069Z,2.77
2019-01-19T03:39:28.971Z,2.73
2019-01-19T03:42:29.074Z,2.70
2019-01-19T03:45:47.266Z,2.66
2019-01-19T03:48:30.310Z,2.61
2019-01-19T03:51:25.172Z,2.59
2019-01-19T03:54:10.617Z,2.57
2019-01-19T03:57:25.660Z,2.52
2019-01-19T04:00:20.553Z,2.50
2019-01-19T04:03:31.860Z,2.48
2019-01-19T04:06:43.355Z,2.45
2019-01-19T04:09:51.486Z,2.42
2019-01-19T04:12:50.426Z,2.38
2019-01-19T04:16:09.287Z,2.34
2019-01-19T04:19:24.310Z,2.30
2019-01-19T04:22:22.043Z,2.27
2019-01-19T04:25:37.384Z,2.22
2019-01-19T04:28:08.805Z,2.19
2019-01-19T04:30:39.969Z,2.14
2019-01-19T04:33:11.119Z,2.12
2019-01-19T04:35:42.278Z,2.08
2019-01-19T04:38:13.599Z,2.07
2019-01-19T04:40:44.827Z,2.06
2019-01-19T04:43:16.139Z,2.04
2019-01-19T04:45:47.324Z,2.02
2019-01-19T04:48:20.231Z,2.00
2019-01-19T04:50:51.475Z,1.98
2019-01-19T04:53:22.670Z,1.95
2019-01-19T04:55:53.886Z,1.93
2019-01-19T04:58:25.061Z,1.89
2019-01-19T05:00:56.303Z,1.88
2019-01-19T05:03:28.556Z,1.86
2019-01-19T05:05:59.756Z,1.82
2019-01-19T05:08:30.971Z,1.81
2019-01-19T05:11:02.128Z,1.78
2019-01-19T05:13:33.312Z,1.76
2019-01-19T05:16:04.470Z,1.76
2019-01-19T05:18:35.825Z,1.74
2019-01-19T05:21:07.236Z,1.71
2019-01-19T05:23:38.678Z,1.71
2019-01-19T05:26:09.874Z,1.68
2019-01-19T05:28:41.065Z,1.67
2019-01-19T05:31:12.391Z,1.65
2019-01-19T05:33:43.661Z,1.64
2019-01-19T05:36:14.878Z,1.62
2019-01-19T05:38:46.048Z,1.60
2019-01-19T05:41:17.255Z,1.57
2019-01-19T05:43:48.433Z,1.56
2019-01-19T05:46:21.462Z,1.54
2019-01-19T05:48:52.977Z,1.53
2019-01-19T05:51:24.216Z,1.52
2019-01-19T05:53:55.434Z,1.52
2019-01-19T05:56:26.610Z,1.50
2019-01-19T05:58:57.907Z,1.47
2019-01-19T06:01:29.562Z,1.45
2019-01-19T06:04:00.768Z,1.44
2019-01-19T06:06:31.973Z,1.41
2019-01-19T06:09:04.148Z,1.38
2019-01-19T06:11:35.395Z,1.36
2019-01-19T06:14:06.549Z,1.35
2019-01-19T06:16:37.751Z,1.34
2019-01-19T06:19:09.328Z,1.33
2019-01-19T06:21:49.504Z,1.30
2019-01-19T06:24:20.764Z,1.29
2019-01-19T06:26:52.002Z,1.28
2019-01-19T06:29:23.190Z,1.26
2019-01-19T06:31:54.369Z,1.26
2019-01-19T06:34:25.632Z,1.24
2019-01-19T06:36:56.801Z,1.23
2019-01-19T06:39:28.098Z,1.20
2019-01-19T06:41:59.287Z,1.20
2019-01-19T06:44:30.506Z,1.18
2019-01-19T06:47:01.845Z,1.18
2019-01-19T06:49:33.015Z,1.15
2019-01-19T06:52:04.217Z,1.14
2019-01-19T06:54:35.432Z,1.13
2019-01-19T06:57:06.652Z,1.12
2019-01-19T06:59:37.832Z,1.10
2019-01-19T07:02:09.073Z,1.10
2019-01-19T07:04:40.253Z,1.08
2019-01-19T07:07:11.521Z,1.07
2019-01-19T07:09:42.705Z,1.06
2019-01-19T07:12:13.905Z,1.05
2019-01-19T07:14:45.184Z,1.03
2019-01-19T07:17:16.370Z,1.03
2019-01-19T07:19:47.555Z,1.02
2019-01-19T07:22:18.817Z,1.01
2019-01-19T07:24:50.108Z,1.00
2019-01-19T07:27:21.296Z,1.00
2019-01-19T07:29:52.520Z,1.00
2019-01-19T07:32:23.668Z,1.00
2019-01-19T07:34:54.859Z,1.00
2019-01-19T07:37:27.088Z,1.00
2019-01-19T07:39:58.296Z,1.02
2019-01-19T07:42:29.544Z,1.03
2019-01-19T07:45:00.745Z,1.03
2019-01-19T07:47:32.234Z,1.04
2019-01-19T07:50:03.486Z,1.06
2019-01-19T07:52:34.821Z,1.08
2019-01-19T07:55:06.670Z,1.09
2019-01-19T07:57:37.855Z,1.10
2019-01-19T08:00:13.531Z,1.12
2019-01-19T08:02:44.758Z,1.13
2019-01-19T08:05:16.373Z,1.15
2019-01-19T08:07:47.566Z,1.17
2019-01-19T08:10:18.975Z,1.18
2019-01-19T08:12:50.140Z,1.21
2019-01-19T08:15:23.263Z,1.23
2019-01-19T08:17:54.451Z,1.25
2019-01-19T08:20:25.674Z,1.25
2019-01-19T08:22:56.875Z,1.27
2019-01-19T08:25:28.016Z,1.29
2019-01-19T08:27:59.278Z,1.29
2019-01-19T08:30:31.315Z,1.31
2019-01-19T08:33:02.526Z,1.30
2019-01-19T08:35:34.217Z,1.32
2019-01-19T08:38:05.406Z,1.33
2019-01-19T08:40:37.468Z,1.33
2019-01-19T08:43:30.774Z,1.35
2019-01-19T08:46:02.271Z,1.38
2019-01-19T08:48:33.701Z,1.39
2019-01-19T08:51:04.992Z,1.42
2019-01-19T08:53:37.282Z,1.43
2019-01-19T08:56:08.483Z,1.46
2019-01-19T08:58:39.702Z,1.50
2019-01-19T09:01:11.052Z,1.52
2019-01-19T09:03:42.282Z,1.54
2019-01-19T09:06:13.461Z,1.56
2019-01-19T09:08:44.697Z,1.59
2019-01-19T09:11:15.993Z,1.63
2019-01-19T09:13:47.172Z,1.66
2019-01-19T09:16:20.689Z,1.69
2019-01-19T09:18:51.880Z,1.73
2019-01-19T09:21:23.096Z,1.77
2019-01-19T09:24:17.311Z,1.78
2019-01-19T09:26:48.550Z,1.83
2019-01-19T09:29:19.755Z,1.87
2019-01-19T09:31:50.928Z,1.89
2019-01-19T09:34:22.167Z,1.92
2019-01-19T09:36:53.375Z,1.96
2019-01-19T09:39:24.584Z,2.00
2019-01-19T09:41:55.804Z,2.05
2019-01-19T09:44:26.911Z,2.10
2019-01-19T09:46:58.037Z,2.14
2019-01-19T09:49:29.187Z,2.18
2019-01-19T09:52:00.284Z,2.24
2019-01-19T09:54:31.533Z,2.27
2019-01-19T09:57:02.740Z,2.33
2019-01-19T09:59:33.869Z,2.36
2019-01-19T10:02:05.044Z,2.42
2019-01-19T10:04:36.245Z,2.46
2019-01-19T10:07:07.485Z,2.51
2019-01-19T10:09:38.714Z,2.56
2019-01-19T10:12:09.939Z,2.60
2019-01-19T10:14:41.103Z,2.66
2019-01-19T10:17:12.326Z,2.70
2019-01-19T10:19:43.516Z,2.74
2019-01-19T10:22:14.671Z,2.79
2019-01-19T10:24:45.870Z,2.83
2019-01-19T10:27:17.091Z,2.89
2019-01-19T10:29:48.306Z,2.93
2019-01-19T10:32:19.604Z,2.96
2019-01-19T10:34:50.770Z,3.01
2019-01-19T10:37:21.936Z,3.05
2019-01-19T10:39:53.103Z,3.09
2019-01-19T10:42:24.465Z,3.14
2019-01-19T10:44:56.767Z,3.19
2019-01-19T10:47:27.974Z,3.25
2019-01-19T10:49:59.194Z,3.30
2019-01-19T10:52:30.426Z,3.32
2019-01-19T10:55:01.615Z,3.41
2019-01-19T10:57:32.777Z,3.46
2019-01-19T11:00:04.540Z,3.52
2019-01-19T11:02:36.856Z,3.58
2019-01-19T11:05:10.544Z,3.61
2019-01-19T11:07:43.834Z,3.69
2019-01-19T11:10:17.237Z,3.75
2019-01-19T11:12:48.405Z,3.80
2019-01-19T11:15:19.611Z,3.92
2019-01-19T11:17:50.879Z,3.96
2019-01-19T11:20:25.671Z,3.96
2019-01-19T11:22:57.917Z,4.01
2019-01-19T11:25:29.153Z,4.03
2019-01-19T11:28:00.375Z,4.10
2019-01-19T11:30:32.163Z,4.10
2019-01-19T11:33:03.401Z,4.16
2019-01-19T11:35:34.563Z,4.19
2019-01-19T11:38:11.775Z,4.19
2019-01-19T11:40:39.535Z,4.27
2019-01-19T11:43:11.503Z,4.25
2019-01-19T11:45:42.723Z,4.32
2019-01-19T11:48:14.059Z,4.36
2019-01-19T11:50:45.375Z,4.39
2019-01-19T11:53:16.701Z,4.43
2019-01-19T11:55:47.936Z,4.48
2019-01-19T11:58:19.100Z,4.49
2019-01-19T12:00:50.286Z,4.57
2019-01-19T12:03:21.588Z,4.63
2019-01-19T12:05:52.821Z,4.68
2019-01-19T12:08:24.007Z,4.71
2019-01-19T12:10:55.215Z,4.75
2019-01-19T12:13:26.413Z,4.80
2019-01-19T12:15:57.570Z,4.85
2019-01-19T12:18:28.817Z,4.90
2019-01-19T12:20:59.991Z,4.95
2019-01-19T12:23:31.246Z,4.99
2019-01-19T12:26:02.481Z,5.03
2019-01-19T12:28:33.685Z,5.08
2019-01-19T12:31:05.294Z,5.12
2019-01-19T12:33:36.549Z,5.16
2019-01-19T12:36:07.753Z,5.21
2019-01-19T12:38:39.050Z,5.27
2019-01-19T12:41:10.414Z,5.30
2019-01-19T12:43:41.679Z,5.34
2019-01-19T12:46:13.060Z,5.37
2019-01-19T12:48:44.301Z,5.42
2019-01-19T12:51:15.501Z,5.46
2019-01-19T12:53:46.656Z,5.52
2019-01-19T12:56:17.889Z,5.57
2019-01-19T12:58:49.200Z,5.60
2019-01-19T13:01:20.468Z,5.63
2019-01-19T13:03:51.693Z,5.66
2019-01-19T13:06:47.798Z,5.69
2019-01-19T13:09:27.837Z,5.74
2019-01-19T13:12:19.805Z,5.77
2019-01-19T13:15:03.178Z,5.80
2019-01-19T13:18:30.727Z,5.85
2019-01-19T13:21:47.716Z,5.89
2019-01-19T13:25:01.879Z,5.93
2019-01-19T13:28:11.651Z,5.96
2019-01-19T13:30:54.738Z,5.99
2019-01-19T13:33:43.726Z,6.01
2019-01-19T13:36:40.915Z,6.03
2019-01-19T13:39:23.197Z,6.05
2019-01-19T13:42:43.909Z,6.05
2019-01-19T13:45:55.341Z,6.04
2019-01-19T13:49:01.995Z,6.04
2019-01-19T13:51:57.338Z,6.04
2019-01-19T13:55:00.666Z,6.02
2019-01-19T13:57:55.653Z,6.02
2019-01-19T14:51:40.260Z,5.22
2019-01-19T14:54:46.633Z,5.12
2019-01-19T14:57:52.341Z,5.08
2019-01-19T15:01:11.184Z,5.06
2019-01-19T15:04:29.841Z,5.04
2019-01-19T15:07:42.412Z,5.00
2019-01-19T15:10:45.228Z,4.96
2019-01-19T15:13:57.477Z,4.92
2019-01-19T15:17:28.249Z,4.88
2019-01-19T15:20:34.149Z,4.83
2019-01-19T15:23:51.979Z,4.76
2019-01-19T15:26:58.876Z,4.71
2019-01-19T15:29:55.841Z,4.65
2019-01-19T15:32:53.373Z,4.58
2019-01-19T15:36:08.911Z,4.52
2019-01-19T15:39:23.726Z,4.45
2019-01-19T15:42:29.092Z,4.39
2019-01-19T15:45:32.163Z,4.32
2019-01-19T15:49:06.046Z,4.24
2019-01-19T15:52:46.056Z,4.19
2019-01-19T15:56:13.211Z,4.08
2019-01-19T15:59:23.995Z,3.99
2019-01-19T16:02:57.625Z,3.93
2019-01-19T16:06:22.133Z,3.86
2019-01-19T16:09:20.046Z,3.71
2019-01-19T16:12:30.107Z,3.68
2019-01-19T16:15:27.232Z,3.58
2019-01-19T16:18:42.958Z,3.52
2019-01-19T16:21:36.099Z,3.52
2019-01-19T16:25:06.403Z,3.47
2019-01-19T16:28:28.405Z,3.41
2019-01-19T16:31:44.184Z,3.35
2019-01-19T16:35:05.746Z,3.29
2019-01-19T16:38:18.965Z,3.21
2019-01-19T16:41:37.355Z,3.15
2019-01-19T16:44:47.310Z,3.10
2019-01-19T16:47:48.492Z,3.06
2019-01-19T16:50:56.110Z,3.01
2019-01-19T16:53:45.432Z,2.98
2019-01-19T16:56:40.016Z,2.96
2019-01-19T17:00:02.200Z,2.92
2019-01-19T17:03:15.627Z,2.89
2019-01-19T17:06:22.057Z,2.85
2019-01-19T17:09:32.915Z,2.84
2019-01-19T17:12:38.249Z,2.80
2019-01-19T17:15:50.366Z,2.75
2019-01-19T17:19:02.641Z,2.71
2019-01-19T17:22:21.123Z,2.65
2019-01-19T17:25:06.778Z,2.61
2019-01-19T17:27:55.813Z,2.57
2019-01-19T17:31:26.440Z,2.54
2019-01-19T17:34:45.051Z,2.50
2019-01-19T17:37:46.148Z,2.48
2019-01-19T17:40:47.503Z,2.44
2019-01-19T17:43:55.630Z,2.43
2019-01-19T17:47:26.188Z,2.40
2019-01-19T17:50:45.883Z,2.37
2019-01-19T17:53:45.958Z,2.34
2019-01-19T17:56:58.624Z,2.32
2019-01-19T18:00:02.884Z,2.30
2019-01-19T18:03:06.501Z,2.27
2019-01-19T18:06:09.823Z,2.26
2019-01-19T18:09:15.175Z,2.23
2019-01-19T18:12:22.149Z,2.19
2019-01-19T18:15:39.805Z,2.16
2019-01-19T18:19:25.781Z,2.14
2019-01-19T18:22:35.782Z,2.13
2019-01-19T18:25:21.278Z,2.10
2019-01-19T18:28:20.624Z,2.08
2019-01-19T18:31:20.582Z,2.06
2019-01-19T18:34:09.635Z,2.05
2019-01-19T18:37:17.578Z,2.01
2019-01-19T18:40:09.116Z,1.99
2019-01-19T18:43:23.187Z,1.95
2019-01-19T18:46:29.340Z,1.92
2019-01-19T18:49:16.547Z,1.89
2019-01-19T18:52:09.241Z,1.88
2019-01-19T18:55:07.268Z,1.87
2019-01-19T18:58:20.933Z,1.87
2019-01-19T19:01:30.413Z,1.85
2019-01-19T19:05:04.052Z,1.85
2019-01-19T19:07:58.832Z,1.83
2019-01-19T19:11:13.143Z,1.80
2019-01-19T19:14:13.555Z,1.79
2019-01-19T19:17:01.137Z,1.78
2019-01-19T19:20:02.995Z,1.77
2019-01-19T19:22:48.704Z,1.73
2019-01-19T19:25:45.853Z,1.72
2019-01-19T19:29:04.391Z,1.70
2019-01-19T19:32:05.363Z,1.66
2019-01-19T19:35:31.146Z,1.66
2019-01-19T19:38:44.623Z,1.63
2019-01-19T19:41:52.837Z,1.59
2019-01-19T19:44:52.128Z,1.56
2019-01-19T19:47:50.647Z,1.55
2019-01-19T19:50:51.439Z,1.52
2019-01-19T19:53:22.733Z,1.51
2019-01-19T19:55:52.475Z,1.49
2019-01-19T19:58:23.848Z,1.48
2019-01-19T20:00:55.277Z,1.47
2019-01-19T20:03:26.801Z,1.46
2019-01-19T20:05:58.354Z,1.45
2019-01-19T20:08:30.107Z,1.45
2019-01-19T20:11:01.803Z,1.44
2019-01-19T20:13:33.245Z,1.43
2019-01-19T20:16:04.628Z,1.42
2019-01-19T20:18:36.136Z,1.40
2019-01-19T20:21:08.004Z,1.39
2019-01-19T20:23:39.551Z,1.38
2019-01-19T20:26:11.006Z,1.37
2019-01-19T20:28:42.393Z,1.36
2019-01-19T20:31:14.848Z,1.34
2019-01-19T20:33:46.394Z,1.32
2019-01-19T20:36:17.743Z,1.31
2019-01-19T20:38:51.331Z,1.29
2019-01-19T20:41:22.943Z,1.28
2019-01-19T20:43:54.268Z,1.25
2019-01-19T20:46:25.973Z,1.24
2019-01-19T20:48:57.570Z,1.22
2019-01-19T20:51:29.209Z,1.19
2019-01-19T20:54:00.817Z,1.17
2019-01-19T20:56:32.430Z,1.16
2019-01-19T20:59:04.083Z,1.14
2019-01-19T21:01:35.488Z,1.11
2019-01-19T21:04:07.069Z,1.09
2019-01-19T21:06:39.534Z,1.08
2019-01-19T21:09:11.974Z,1.06
2019-01-19T21:11:43.278Z,1.06
2019-01-19T21:14:14.409Z,1.03
2019-01-19T21:16:45.738Z,1.02
2019-01-19T21:19:17.026Z,1.01
2019-01-19T21:21:48.207Z,0.98
2019-01-19T21:24:19.482Z,0.97
2019-01-19T21:26:50.762Z,0.92
2019-01-19T21:29:22.166Z,0.90
2019-01-19T21:31:53.378Z,0.88
2019-01-19T21:34:24.773Z,0.84
2019-01-19T21:36:55.983Z,0.83
2019-01-19T21:39:27.174Z,0.82
2019-01-19T21:41:58.462Z,0.80
2019-01-19T21:44:29.745Z,0.79
2019-01-19T21:47:00.972Z,0.78
2019-01-19T21:49:34.801Z,0.76
2019-01-19T21:52:06.404Z,0.75
2019-01-19T21:54:37.733Z,0.73
2019-01-19T21:57:08.954Z,0.72
2019-01-19T21:59:40.150Z,0.73
2019-01-19T22:02:11.343Z,0.72
2019-01-19T22:04:42.635Z,0.71
2019-01-19T22:07:13.828Z,0.69
2019-01-19T22:09:45.149Z,0.66
2019-01-19T22:12:16.360Z,0.65
2019-01-19T22:14:47.557Z,0.64
2019-01-19T22:17:18.746Z,0.62
2019-01-19T22:19:51.028Z,0.63
2019-01-19T22:22:22.192Z,0.62
2019-01-19T22:24:53.388Z,0.61
2019-01-19T22:27:24.802Z,0.60
2019-01-19T22:29:56.025Z,0.60
2019-01-19T22:32:27.339Z,0.59
2019-01-19T22:34:58.624Z,0.59
2019-01-19T22:37:29.811Z,0.58
2019-01-19T22:40:01.755Z,0.57
2019-01-19T22:42:33.159Z,0.56
2019-01-19T22:45:05.674Z,0.53
2019-01-19T22:47:36.924Z,0.51
2019-01-19T22:50:11.022Z,0.49
2019-01-19T22:52:42.210Z,0.48
2019-01-19T22:55:13.462Z,0.45
2019-01-19T22:57:44.743Z,0.44
2019-01-19T23:00:29.096Z,0.42
2019-01-19T23:03:01.949Z,0.41
2019-01-19T23:05:33.326Z,0.39
2019-01-19T23:08:04.797Z,0.38
2019-01-19T23:10:36.128Z,0.36
2019-01-19T23:13:07.790Z,0.36
2019-01-19T23:15:39.217Z,0.34
2019-01-19T23:18:10.591Z,0.33
2019-01-19T23:20:41.771Z,0.29
2019-01-19T23:23:12.979Z,0.29
2019-01-19T23:25:44.469Z,0.27
2019-01-19T23:28:15.809Z,0.26
2019-01-19T23:30:47.094Z,0.26
2019-01-19T23:33:18.249Z,0.24
2019-01-19T23:35:49.614Z,0.25
2019-01-19T23:38:20.758Z,0.23
2019-01-19T23:40:51.991Z,0.23
2019-01-19T23:43:23.309Z,0.23
2019-01-19T23:45:54.469Z,0.21
2019-01-19T23:48:25.771Z,0.21
2019-01-19T23:50:56.976Z,0.20
2019-01-19T23:53:28.220Z,0.19
2019-01-19T23:55:59.400Z,0.17
2019-01-19T23:58:30.609Z,0.17
